La Crosse, Wisconsin
Current Conditions -  °F | °C
As of 3:53 AM on Monday 22 Dec 2014 (Local Time) from KLSE Reporting Station
Haze Haze  
Wind Chill: 30°   Ceiling: 1200
Heat Index: 38°   Visibility: 6mi
Dew Point: 33°   Wind: 12mph
Humidity: 83%   Direction: 150°SSE
Pressure: 29.8"   Gusts: NA
Location:  43.81°N, 91.25°W
Report Text: KLSE 220953Z AUTO 15010KT 6SM HZ OVC012 03/01 A2980 RMK AO2 SLP098 T00330006
Loading
Personal Weather Stations






























Interactive Weather Map New forecast layout! Learn more

10-Day Weather Forecast

Advertisements
Track Severe Weather on mobile